Time;durP1;ratioP1;P1;durP2;ratioP2;P2;SDS_P1;SDS_P2;PMS_P1;PMS_P2;Temp;Humidity;BMP_temperature;BMP_pressure;BME280_temperature;BME280_humidity;BME280_pressure;Samples;Min_cycle;Max_cycle;Signal;HPM_P1;HPM_P2
2022/11/09 00:00:38;;;;;;;2.42;1.90;;;14.80;73.10;;;;;;5060141;28;20726;-84
2022/11/09 00:03:05;;;;;;;3.97;1.83;;;14.80;99.90;;;;;;5052532;28;20213;-84
2022/11/09 00:05:32;;;;;;;1.83;1.50;;;14.70;99.90;;;;;;5053255;28;20294;-84
2022/11/09 00:07:59;;;;;;;3.35;1.65;;;14.90;99.90;;;;;;5062163;28;20230;-84
2022/11/09 00:10:27;;;;;;;3.95;1.98;;;14.80;99.90;;;;;;5069841;28;20666;-83
2022/11/09 00:12:54;;;;;;;3.87;1.90;;;14.90;99.90;;;;;;5072400;28;20627;-83
2022/11/09 00:15:21;;;;;;;2.15;1.90;;;15.00;99.90;;;;;;5073585;28;20217;-83
2022/11/09 00:17:48;;;;;;;4.47;2.13;;;15.00;5.90;;;;;;5074353;28;20297;-84
2022/11/09 00:20:15;;;;;;;5.70;2.10;;;14.80;99.90;;;;;;5068323;28;20261;-84
2022/11/09 00:22:42;;;;;;;3.42;1.90;;;14.80;99.90;;;;;;5071419;28;20263;-85
2022/11/09 00:25:09;;;;;;;4.22;1.90;;;14.80;99.90;;;;;;5056461;28;20297;-85
2022/11/09 00:27:38;;;;;;;4.38;1.90;;;14.70;99.90;;;;;;5056268;28;20321;-85
2022/11/09 00:30:05;;;;;;;2.88;2.05;;;14.60;99.90;;;;;;5063569;28;20930;-84
2022/11/09 00:32:32;;;;;;;2.67;1.60;;;14.80;99.90;;;;;;5057281;28;20783;-84
2022/11/09 00:34:59;;;;;;;2.92;1.50;;;14.60;99.90;;;;;;5074393;28;20286;-85
2022/11/09 00:37:26;;;;;;;4.43;1.53;;;14.60;99.90;;;;;;5075002;28;20190;-85
2022/11/09 00:39:53;;;;;;;2.20;1.50;;;14.60;99.90;;;;;;5069629;28;20301;-84
2022/11/09 00:42:20;;;;;;;7.60;1.92;;;14.90;1.00;;;;;;5076806;28;20277;-84
2022/11/09 00:44:48;;;;;;;1.52;1.42;;;14.80;1.00;;;;;;5073992;28;20706;-84
2022/11/09 00:47:15;;;;;;;3.80;1.67;;;14.80;1.00;;;;;;5064917;28;20632;-84
2022/11/09 00:49:41;;;;;;;3.37;1.97;;;14.90;1.00;;;;;;5074718;28;20230;-84
2022/11/09 00:52:08;;;;;;;2.42;1.58;;;14.80;1.00;;;;;;5076362;28;20305;-84
2022/11/09 00:54:35;;;;;;;3.23;1.57;;;14.90;1.00;;;;;;5070829;28;20337;-84
2022/11/09 00:57:02;;;;;;;3.17;1.67;;;14.80;1.00;;;;;;5069779;28;20634;-84
2022/11/09 00:59:29;;;;;;;2.13;1.80;;;14.80;1.00;;;;;;5074967;28;20202;-85
2022/11/09 01:01:57;;;;;;;4.33;1.90;;;14.90;1.00;;;;;;5061289;28;20226;-84
2022/11/09 01:04:24;;;;;;;3.00;1.50;;;14.90;1.00;;;;;;5058298;28;20570;-84
2022/11/09 01:06:51;;;;;;;2.17;1.73;;;15.10;1.00;;;;;;5059224;28;20716;-84
2022/11/09 01:09:17;;;;;;;2.30;2.00;;;15.00;1.00;;;;;;5076172;28;20202;-84
2022/11/09 01:11:44;;;;;;;3.65;2.00;;;15.00;1.00;;;;;;5058605;28;20711;-84
2022/11/09 01:14:11;;;;;;;2.72;1.70;;;14.80;1.00;;;;;;5055417;28;20667;-84
2022/11/09 01:16:39;;;;;;;2.50;1.40;;;14.90;1.00;;;;;;5069107;28;20200;-83
2022/11/09 01:19:07;;;;;;;4.57;2.17;;;15.00;1.00;;;;;;5070455;28;20209;-84
2022/11/09 01:21:34;;;;;;;3.92;1.50;;;15.00;1.00;;;;;;5067660;28;20651;-84
2022/11/09 01:24:01;;;;;;;2.72;1.70;;;15.00;1.00;;;;;;5075993;28;20202;-84
2022/11/09 01:26:28;;;;;;;2.43;1.43;;;15.00;1.00;;;;;;5075953;28;20207;-84
2022/11/09 01:28:55;;;;;;;4.85;1.63;;;15.00;1.00;;;;;;5060275;28;20214;-84
2022/11/09 01:31:22;;;;;;;2.80;1.55;;;15.00;1.00;;;;;;5060597;28;20226;-84
2022/11/09 01:33:50;;;;;;;3.63;1.80;;;15.10;1.00;;;;;;5075210;28;20721;-85
2022/11/09 01:36:20;;;;;;;4.37;1.50;;;15.10;1.00;;;;;;5060141;28;20345;-84
2022/11/09 01:38:47;;;;;;;2.15;1.70;;;15.10;1.00;;;;;;5061317;28;20205;-84
2022/11/09 01:41:17;;;;;;;2.47;1.60;;;15.10;1.00;;;;;;5074761;28;20236;-84
2022/11/09 01:43:45;;;;;;;2.15;1.75;;;15.00;1.00;;;;;;5068576;28;20206;-84
2022/11/09 01:46:18;;;;;;;2.87;1.53;;;15.00;1.00;;;;;;5072979;28;20199;-84
2022/11/09 01:48:50;;;;;;;3.20;1.90;;;15.00;1.00;;;;;;5068165;28;20199;-84
2022/11/09 01:51:23;;;;;;;2.90;1.50;;;15.10;1.00;;;;;;5054261;28;20281;-84
2022/11/09 01:53:53;;;;;;;1.67;1.40;;;15.20;1.00;;;;;;5054691;28;20211;-84
2022/11/09 01:56:20;;;;;;;1.97;1.50;;;15.30;1.00;;;;;;5055001;28;20199;-84
2022/11/09 01:58:51;;;;;;;1.70;1.40;;;15.20;1.00;;;;;;5072533;28;20204;-84
2022/11/09 02:01:19;;;;;;;2.53;1.57;;;15.10;1.00;;;;;;5063728;28;20360;-84
2022/11/09 02:03:50;;;;;;;2.13;1.80;;;15.10;1.00;;;;;;5073635;28;20202;-84
2022/11/09 02:06:21;;;;;;;4.50;1.50;;;15.10;1.00;;;;;;5074036;28;20338;-84
2022/11/09 02:08:49;;;;;;;4.37;2.10;;;15.10;1.00;;;;;;5075884;28;20204;-84
2022/11/09 02:11:19;;;;;;;3.37;1.63;;;15.20;1.00;;;;;;5075790;28;20272;-84
2022/11/09 02:13:49;;;;;;;1.58;1.48;;;15.20;1.00;;;;;;5055101;28;20217;-83
2022/11/09 02:16:16;;;;;;;2.55;1.70;;;15.10;1.00;;;;;;5054892;28;20198;-84
2022/11/09 02:18:51;;;;;;;1.90;1.67;;;15.20;1.00;;;;;;5063308;28;20205;-84
2022/11/09 02:21:19;;;;;;;2.10;1.60;;;15.20;1.00;;;;;;5073377;28;20217;-84
2022/11/09 02:23:46;;;;;;;3.73;1.67;;;15.20;1.00;;;;;;5074760;28;20206;-84
2022/11/09 02:26:16;;;;;;;2.47;1.43;;;15.20;1.00;;;;;;5061086;28;20574;-84
2022/11/09 02:28:43;;;;;;;2.70;1.50;;;15.20;1.00;;;;;;5057666;28;20195;-84
2022/11/09 02:31:13;;;;;;;2.20;1.48;;;15.10;1.00;;;;;;5065859;28;20226;-85
2022/11/09 02:33:44;;;;;;;2.92;1.77;;;15.10;32.00;;;;;;5074616;28;20650;-84
2022/11/09 02:36:11;;;;;;;3.40;1.73;;;15.10;4.40;;;;;;5055043;28;20212;-84
2022/11/09 02:38:39;;;;;;;5.13;1.58;;;14.90;99.90;;;;;;5054851;28;20211;-84
2022/11/09 02:41:07;;;;;;;3.67;2.13;;;14.90;99.90;;;;;;5061284;28;20213;-84
2022/11/09 02:43:35;;;;;;;2.33;1.50;;;15.00;99.90;;;;;;5073800;28;20200;-84
2022/11/09 02:46:02;;;;;;;2.17;1.73;;;15.10;99.90;;;;;;5069738;28;20205;-84
2022/11/09 02:48:29;;;;;;;2.80;1.98;;;15.20;99.10;;;;;;5071519;28;20205;-84
2022/11/09 02:50:56;;;;;;;2.90;1.70;;;15.20;8.10;;;;;;5065162;28;20235;-84
2022/11/09 02:53:22;;;;;;;2.05;1.80;;;15.10;99.90;;;;;;5070934;28;20198;-84
2022/11/09 02:55:51;;;;;;;2.28;1.83;;;15.10;99.90;;;;;;5061250;28;20205;-84
2022/11/09 02:58:18;;;;;;;3.72;1.70;;;15.20;99.90;;;;;;5066624;28;20210;-84
2022/11/09 03:00:44;;;;;;;3.38;1.90;;;15.20;99.90;;;;;;5062278;28;20222;-84
2022/11/09 03:03:11;;;;;;;3.00;1.88;;;15.20;99.90;;;;;;5074706;28;20285;-84
2022/11/09 03:05:38;;;;;;;4.22;1.73;;;15.10;99.90;;;;;;5061454;28;20290;-84
2022/11/09 03:08:05;;;;;;;4.47;1.73;;;15.00;99.90;;;;;;5054269;28;20548;-84
2022/11/09 03:10:32;;;;;;;2.05;1.70;;;15.00;99.90;;;;;;5057965;28;20314;-84
2022/11/09 03:13:00;;;;;;;1.65;1.30;;;15.10;99.90;;;;;;5065152;28;21008;-85
2022/11/09 03:15:26;;;;;;;3.15;1.67;;;15.20;99.90;;;;;;5068360;28;20213;-85
2022/11/09 03:17:53;;;;;;;2.88;1.67;;;15.10;99.90;;;;;;5072269;28;20284;-84
2022/11/09 03:20:20;;;;;;;2.38;1.83;;;15.00;99.90;;;;;;5068359;28;20222;-85
2022/11/09 03:22:47;;;;;;;4.43;1.50;;;15.00;99.90;;;;;;5073533;28;20205;-85
2022/11/09 03:25:14;;;;;;;1.55;1.40;;;15.00;99.90;;;;;;5070625;28;20198;-84
2022/11/09 03:27:41;;;;;;;3.35;1.50;;;15.20;99.90;;;;;;5073245;28;20551;-84
2022/11/09 03:30:10;;;;;;;3.17;1.77;;;15.00;99.90;;;;;;5055511;28;20239;-85
2022/11/09 03:32:37;;;;;;;4.00;1.58;;;15.10;99.90;;;;;;5056449;28;20226;-84
2022/11/09 03:35:04;;;;;;;1.55;1.30;;;15.10;99.90;;;;;;5053308;28;20297;-84
2022/11/09 03:37:31;;;;;;;1.70;1.60;;;15.00;99.90;;;;;;5053666;28;20203;-85
2022/11/09 03:39:57;;;;;;;1.73;1.50;;;15.10;99.90;;;;;;5053368;28;20729;-84
2022/11/09 03:42:24;;;;;;;1.50;1.40;;;15.00;1.00;;;;;;5068334;28;20320;-84
2022/11/09 03:44:52;;;;;;;2.15;1.40;;;15.10;99.90;;;;;;5072665;28;20206;-85
2022/11/09 03:47:20;;;;;;;6.70;2.20;;;15.10;99.90;;;;;;5072769;28;20200;-84
2022/11/09 03:49:47;;;;;;;1.45;1.35;;;15.00;99.90;;;;;;5072054;28;20695;-85
2022/11/09 03:52:13;;;;;;;3.00;1.77;;;15.00;99.90;;;;;;5067910;28;20222;-84
2022/11/09 03:54:40;;;;;;;2.13;1.50;;;15.00;1.00;;;;;;5064493;28;20682;-84
2022/11/09 03:57:07;;;;;;;1.83;1.10;;;15.00;1.00;;;;;;5057822;28;20302;-85
2022/11/09 03:59:35;;;;;;;2.65;1.60;;;14.90;1.00;;;;;;5067785;28;20210;-84
2022/11/09 04:02:01;;;;;;;1.40;1.30;;;14.90;1.00;;;;;;5069043;28;20221;-85
2022/11/09 04:04:29;;;;;;;2.35;1.50;;;14.90;1.00;;;;;;5074162;28;20212;-84
2022/11/09 04:06:56;;;;;;;2.03;1.50;;;14.80;1.00;;;;;;5077564;28;20293;-84
2022/11/09 04:09:23;;;;;;;2.58;1.58;;;14.80;1.00;;;;;;5063628;28;20285;-84
2022/11/09 04:11:50;;;;;;;3.00;1.80;;;14.90;1.00;;;;;;5077797;28;20295;-84
2022/11/09 04:14:17;;;;;;;1.70;1.53;;;14.70;1.00;;;;;;5075454;28;20298;-85
2022/11/09 04:16:43;;;;;;;1.60;1.50;;;14.80;1.00;;;;;;5058028;28;20205;-84
2022/11/09 04:19:10;;;;;;;2.20;1.70;;;14.70;99.90;;;;;;5057265;28;20199;-85
2022/11/09 04:21:38;;;;;;;2.00;1.50;;;14.60;99.90;;;;;;5063189;28;20221;-84
2022/11/09 04:24:05;;;;;;;3.63;1.60;;;14.70;99.90;;;;;;5076007;28;20277;-84
2022/11/09 04:26:32;;;;;;;2.78;1.67;;;14.60;1.00;;;;;;5074163;28;20194;-86
2022/11/09 04:28:59;;;;;;;3.27;1.80;;;14.50;1.00;;;;;;5075338;28;20240;-85
2022/11/09 04:31:26;;;;;;;2.95;1.75;;;14.50;1.00;;;;;;5074536;28;20652;-86
2022/11/09 04:33:53;;;;;;;5.37;1.87;;;14.50;30.40;;;;;;5074992;28;20213;-86
2022/11/09 04:36:19;;;;;;;2.40;1.60;;;14.40;99.90;;;;;;5075409;28;20683;-86
2022/11/09 04:38:48;;;;;;;3.17;1.47;;;14.50;99.90;;;;;;5084877;28;20233;-83
2022/11/09 04:41:14;;;;;;;1.80;1.63;;;14.40;1.00;;;;;;5092095;28;20230;-83
2022/11/09 04:43:41;;;;;;;1.70;1.40;;;14.30;1.00;;;;;;5091665;28;20265;-84
2022/11/09 04:46:08;;;;;;;4.03;1.70;;;14.30;1.00;;;;;;5090902;28;20270;-83
2022/11/09 04:48:35;;;;;;;2.87;1.77;;;14.30;1.00;;;;;;5092225;28;20206;-83
2022/11/09 04:51:04;;;;;;;3.03;1.60;;;14.30;95.80;;;;;;5092740;28;20217;-83
2022/11/09 04:53:31;;;;;;;2.77;1.67;;;14.20;99.90;;;;;;5092529;28;20267;-83
2022/11/09 04:55:59;;;;;;;2.50;1.40;;;14.20;1.00;;;;;;5091233;28;20702;-83
2022/11/09 04:58:26;;;;;;;2.87;1.60;;;14.20;1.00;;;;;;5091996;28;20270;-82
2022/11/09 05:00:54;;;;;;;3.17;1.70;;;14.10;8.60;;;;;;5091564;28;20254;-83
2022/11/09 05:03:21;;;;;;;1.97;1.80;;;14.10;99.90;;;;;;5090049;28;20202;-84
2022/11/09 05:05:48;;;;;;;1.87;1.70;;;14.10;99.90;;;;;;5091456;28;20214;-84
2022/11/09 05:08:14;;;;;;;6.87;4.57;;;14.00;1.00;;;;;;5091340;28;20264;-84
2022/11/09 05:10:41;;;;;;;3.53;2.10;;;14.00;1.00;;;;;;5091711;28;20250;-84
2022/11/09 05:13:12;;;;;;;3.23;1.70;;;14.10;1.00;;;;;;5091866;28;20230;-84
2022/11/09 05:15:40;;;;;;;3.33;1.70;;;14.30;1.00;;;;;;5088522;28;20221;-83
2022/11/09 05:18:10;;;;;;;2.00;1.57;;;14.40;99.90;;;;;;5084695;28;20233;-84
2022/11/09 05:20:37;;;;;;;2.87;2.00;;;14.20;99.90;;;;;;5082581;28;20230;-83
2022/11/09 05:25:52;;;;;;;1.70;1.60;;;14.30;99.90;;;;;;5081162;28;20205;-85
2022/11/09 05:28:22;;;;;;;1.95;1.52;;;14.10;1.00;;;;;;5089816;28;20218;-85
2022/11/09 05:30:49;;;;;;;3.33;1.70;;;14.10;99.90;;;;;;5086217;28;20222;-85
2022/11/09 05:33:16;;;;;;;4.37;2.00;;;14.20;1.00;;;;;;5091655;28;20222;-84
2022/11/09 05:35:43;;;;;;;2.77;1.60;;;14.10;1.00;;;;;;5079683;28;20198;-83
2022/11/09 05:38:10;;;;;;;2.20;2.00;;;14.10;99.90;;;;;;5076255;28;20557;-83
2022/11/09 05:40:37;;;;;;;3.63;1.83;;;14.20;99.90;;;;;;5058891;28;20233;-84
2022/11/09 05:43:04;;;;;;;2.53;1.60;;;14.10;15.00;;;;;;5057955;28;20209;-83
2022/11/09 05:45:32;;;;;;;1.97;1.57;;;14.00;1.00;;;;;;5067031;28;20281;-83
2022/11/09 05:47:58;;;;;;;2.83;1.90;;;14.10;1.00;;;;;;5077057;28;20210;-83
2022/11/09 05:50:25;;;;;;;2.27;1.67;;;14.00;1.00;;;;;;5077378;28;20225;-83
2022/11/09 05:52:53;;;;;;;1.70;1.60;;;14.10;99.90;;;;;;5078771;28;20585;-83
2022/11/09 05:55:20;;;;;;;2.57;1.80;;;14.00;1.00;;;;;;5081556;28;20202;-82
2022/11/09 05:57:47;;;;;;;6.03;2.50;;;13.90;1.00;;;;;;5081676;28;20230;-83
2022/11/09 06:00:15;;;;;;;9.33;5.80;;;13.90;2.60;;;;;;5083680;28;20218;-83
2022/11/09 06:02:43;;;;;;;1.87;1.77;;;13.90;1.00;;;;;;5086243;28;20233;-84
2022/11/09 06:05:10;;;;;;;2.63;2.10;;;13.80;99.90;;;;;;5088320;28;20294;-83
2022/11/09 06:07:37;;;;;;;4.87;2.30;;;13.80;99.90;;;;;;5087849;28;20674;-83
2022/11/09 06:10:07;;;;;;;2.00;1.80;;;13.70;99.90;;;;;;5090528;28;20218;-82
2022/11/09 06:15:17;;;;;;;1.90;1.70;;;13.80;1.00;;;;;;5083875;28;20224;-83
2022/11/09 06:17:51;;;;;;;4.10;1.70;;;13.70;1.00;;;;;;5087230;28;20214;-82
2022/11/09 06:20:42;;;;;;;3.33;1.90;;;13.70;1.00;;;;;;5090002;28;20214;-82
2022/11/09 06:23:12;;;;;;;2.67;1.80;;;13.80;1.00;;;;;;5078103;28;20207;-84
2022/11/09 06:25:38;;;;;;;3.43;1.70;;;14.00;1.00;;;;;;5081170;28;20270;-83
2022/11/09 06:28:05;;;;;;;3.57;1.73;;;13.90;99.90;;;;;;5078721;28;20199;-83
2022/11/09 06:30:32;;;;;;;3.13;1.60;;;13.90;1.00;;;;;;5083714;28;20285;-83
2022/11/09 06:33:01;;;;;;;3.63;1.97;;;13.90;1.00;;;;;;5081029;28;20233;-83
2022/11/09 06:35:29;;;;;;;2.17;1.80;;;13.80;1.00;;;;;;5070932;28;20199;-82
2022/11/09 06:37:57;;;;;;;3.73;1.97;;;13.80;1.00;;;;;;5063426;28;20195;-82
2022/11/09 06:40:24;;;;;;;1.73;1.60;;;13.70;1.00;;;;;;5068706;28;20881;-81
2022/11/09 06:42:51;;;;;;;2.13;1.80;;;13.80;1.00;;;;;;5069972;28;20194;-82
2022/11/09 06:45:18;;;;;;;2.13;1.70;;;14.00;1.00;;;;;;5072583;28;20202;-81
2022/11/09 06:47:45;;;;;;;3.33;1.90;;;13.90;1.00;;;;;;5059827;28;20285;-81
2022/11/09 06:50:13;;;;;;;2.13;1.80;;;13.90;1.00;;;;;;5062916;28;20709;-81
2022/11/09 06:52:40;;;;;;;1.83;1.73;;;14.00;1.00;;;;;;5067942;28;20729;-82
2022/11/09 06:55:08;;;;;;;2.37;1.87;;;13.80;1.00;;;;;;5070302;28;20226;-82
2022/11/09 06:57:35;;;;;;;3.90;1.90;;;13.70;1.00;;;;;;5073032;28;20560;-81
2022/11/09 07:00:02;;;;;;;2.33;1.70;;;13.80;1.00;;;;;;5066653;28;20627;-81
2022/11/09 07:02:29;;;;;;;3.90;1.80;;;13.80;1.00;;;;;;5070546;28;20217;-81
2022/11/09 07:04:56;;;;;;;1.67;1.57;;;13.90;1.00;;;;;;5069421;28;20207;-81
2022/11/09 07:07:24;;;;;;;2.70;1.90;;;14.00;1.00;;;;;;5062617;28;20203;-81
2022/11/09 07:09:51;;;;;;;2.60;1.70;;;13.90;1.00;;;;;;5067250;28;20224;-81
2022/11/09 07:12:17;;;;;;;2.00;1.80;;;14.00;1.00;;;;;;5057576;28;20222;-81
2022/11/09 07:14:44;;;;;;;3.60;1.93;;;14.00;1.00;;;;;;5073335;28;20218;-81
2022/11/09 07:17:11;;;;;;;3.33;1.77;;;14.00;1.00;;;;;;5071402;28;20201;-81
2022/11/09 07:19:38;;;;;;;1.73;1.50;;;13.90;1.00;;;;;;5066577;28;20213;-81
2022/11/09 07:22:04;;;;;;;5.23;1.73;;;14.10;1.00;;;;;;5071757;28;20658;-81
2022/11/09 07:24:33;;;;;;;2.20;1.70;;;14.20;1.00;;;;;;5059474;28;20198;-81
2022/11/09 07:27:00;;;;;;;3.13;2.00;;;14.20;1.00;;;;;;5074284;28;20205;-80
2022/11/09 07:29:26;;;;;;;2.17;1.70;;;14.30;1.00;;;;;;5070162;28;20202;-81
2022/11/09 07:31:53;;;;;;;2.37;1.93;;;14.30;1.00;;;;;;5072573;28;20199;-81
2022/11/09 07:34:20;;;;;;;3.57;1.57;;;14.30;1.00;;;;;;5067887;28;20226;-81
2022/11/09 07:36:47;;;;;;;1.60;1.50;;;14.40;1.00;;;;;;5073214;28;20198;-81
2022/11/09 07:39:13;;;;;;;3.07;1.67;;;14.50;99.90;;;;;;5070392;28;20209;-81
2022/11/09 07:41:42;;;;;;;4.53;2.10;;;14.60;99.90;;;;;;5072951;28;20248;-81
2022/11/09 07:44:13;;;;;;;3.07;1.63;;;14.60;99.90;;;;;;5070662;28;20204;-81
2022/11/09 07:46:40;;;;;;;3.90;1.77;;;14.80;1.00;;;;;;5072897;28;20264;-81
2022/11/09 07:49:06;;;;;;;2.20;1.53;;;14.80;1.00;;;;;;5067140;28;20198;-81
2022/11/09 07:51:35;;;;;;;4.57;1.83;;;14.90;1.00;;;;;;5065294;28;20302;-79
2022/11/09 07:54:01;;;;;;;2.80;1.47;;;15.00;99.90;;;;;;5071231;28;20288;-79
2022/11/09 07:56:28;;;;;;;1.87;1.60;;;15.20;1.00;;;;;;5071890;28;20669;-79
2022/11/09 07:58:56;;;;;;;1.73;1.60;;;15.30;1.00;;;;;;5066683;28;20220;-79
2022/11/09 08:01:23;;;;;;;4.27;1.60;;;15.30;1.00;;;;;;5074737;28;20221;-80
2022/11/09 08:03:50;;;;;;;2.40;1.57;;;15.30;1.00;;;;;;5074083;28;20750;-79
2022/11/09 08:06:17;;;;;;;3.03;1.60;;;15.30;99.90;;;;;;5077284;28;20198;-80
2022/11/09 08:08:43;;;;;;;3.45;1.58;;;15.20;98.60;;;;;;5062728;28;20210;-80
2022/11/09 08:11:10;;;;;;;2.58;1.70;;;15.30;99.90;;;;;;5076626;28;20301;-80
2022/11/09 08:13:37;;;;;;;3.38;1.48;;;15.30;99.90;;;;;;5076343;28;20218;-80
2022/11/09 08:16:06;;;;;;;3.40;1.50;;;15.30;1.00;;;;;;5059016;28;20245;-80
2022/11/09 08:18:32;;;;;;;2.45;1.48;;;15.30;1.00;;;;;;5074205;28;20205;-80
2022/11/09 08:21:02;;;;;;;4.65;1.67;;;15.40;1.00;;;;;;5070555;28;20225;-79
2022/11/09 08:23:29;;;;;;;7.07;4.20;;;15.40;99.90;;;;;;5074253;28;20555;-79
2022/11/09 08:25:56;;;;;;;3.38;1.90;;;15.40;1.00;;;;;;5069258;28;20285;-80
2022/11/09 08:28:23;;;;;;;3.15;1.70;;;15.30;99.90;;;;;;5069940;28;20229;-80
2022/11/09 08:30:56;;;;;;;1.73;1.40;;;15.30;1.00;;;;;;5065558;28;20222;-79
2022/11/09 08:33:25;;;;;;;3.47;1.80;;;15.30;1.00;;;;;;5072694;28;20704;-80
2022/11/09 08:35:52;;;;;;;3.33;1.90;;;15.30;1.00;;;;;;5073467;28;20336;-80
2022/11/09 08:38:18;;;;;;;1.70;1.38;;;15.20;1.00;;;;;;5064755;28;20206;-80
2022/11/09 08:40:45;;;;;;;2.10;1.50;;;15.20;1.00;;;;;;5070718;28;20590;-79
2022/11/09 08:43:12;;;;;;;1.47;1.07;;;15.20;1.00;;;;;;5070118;28;20652;-79
2022/11/09 08:45:40;;;;;;;1.90;1.50;;;15.20;99.90;;;;;;5065517;28;20199;-79
2022/11/09 08:48:08;;;;;;;1.55;1.08;;;15.20;99.90;;;;;;5061348;28;20673;-79
2022/11/09 08:50:37;;;;;;;1.30;1.20;;;15.10;1.00;;;;;;5073643;28;20214;-78
2022/11/09 08:53:05;;;;;;;3.07;1.80;;;15.10;1.00;;;;;;5075309;28;20218;-79
2022/11/09 08:55:32;;;;;;;1.63;1.50;;;14.90;99.90;;;;;;5073626;28;20198;-79
2022/11/09 08:58:01;;;;;;;1.87;1.77;;;14.70;99.90;;;;;;5067676;28;20289;-80
2022/11/09 09:00:28;;;;;;;2.23;1.73;;;14.50;99.90;;;;;;5067800;28;20249;-79
2022/11/09 09:02:55;;;;;;;5.43;2.00;;;14.40;99.90;;;;;;5075910;28;20201;-80
2022/11/09 09:05:22;;;;;;;2.67;1.50;;;14.10;99.90;;;;;;5075345;28;20205;-80
2022/11/09 09:07:51;;;;;;;6.20;2.10;;;14.10;99.90;;;;;;5074413;28;20202;-80
2022/11/09 09:10:18;;;;;;;6.20;1.97;;;14.00;99.90;;;;;;5074967;28;20222;-79
2022/11/09 09:12:44;;;;;;;6.03;2.40;;;13.80;99.90;;;;;;5074401;28;20228;-80
2022/11/09 09:15:11;;;;;;;3.63;2.60;;;13.70;99.90;;;;;;5074477;28;20297;-79
2022/11/09 09:17:38;;;;;;;3.10;2.47;;;13.70;99.90;;;;;;5074577;28;20202;-79
2022/11/09 09:20:06;;;;;;;6.10;2.60;;;13.60;99.90;;;;;;5074703;28;20218;-79
2022/11/09 09:22:33;;;;;;;7.50;2.60;;;13.50;99.90;;;;;;5075231;28;20581;-79
2022/11/09 09:25:01;;;;;;;5.33;2.67;;;13.50;99.90;;;;;;5064228;28;20206;-79
2022/11/09 09:27:29;;;;;;;6.27;2.90;;;13.50;99.90;;;;;;5066429;28;20198;-79
2022/11/09 09:29:56;;;;;;;4.63;2.50;;;13.40;99.90;;;;;;5067330;28;20214;-79
2022/11/09 09:32:23;;;;;;;8.77;2.47;;;13.40;99.90;;;;;;5074429;28;20285;-79
2022/11/09 09:34:50;;;;;;;4.40;2.37;;;13.40;99.90;;;;;;5063960;28;20226;-79
2022/11/09 09:37:17;;;;;;;1.80;1.27;;;13.20;99.90;;;;;;5068780;28;20236;-78
2022/11/09 09:39:44;;;;;;;4.53;1.20;;;13.10;99.90;;;;;;5077599;28;20222;-79
2022/11/09 09:42:18;;;;;;;1.60;1.30;;;13.20;99.90;;;;;;5067247;28;20228;-80
2022/11/09 09:44:51;;;;;;;3.37;1.70;;;13.10;99.90;;;;;;5065857;28;20194;-80
2022/11/09 09:47:22;;;;;;;1.93;1.37;;;13.20;99.90;;;;;;5070347;28;20210;-80
2022/11/09 09:49:55;;;;;;;3.23;1.53;;;13.20;99.90;;;;;;5071294;28;20210;-80
2022/11/09 09:52:31;;;;;;;4.63;2.17;;;13.20;99.90;;;;;;5080046;28;20207;-81
2022/11/09 09:55:01;;;;;;;3.23;2.03;;;13.20;99.90;;;;;;5071529;28;20224;-81
2022/11/09 09:57:32;;;;;;;2.43;1.30;;;13.20;99.90;;;;;;5078714;28;20206;-81
2022/11/09 10:00:02;;;;;;;2.67;1.73;;;13.20;99.90;;;;;;5066371;28;20228;-83
2022/11/09 10:02:30;;;;;;;3.13;1.03;;;13.20;99.90;;;;;;5079581;28;20199;-81
2022/11/09 10:05:00;;;;;;;2.27;1.13;;;13.20;99.90;;;;;;5075074;28;20201;-83
2022/11/09 10:07:30;;;;;;;3.27;1.37;;;13.10;99.90;;;;;;5076348;28;20268;-82
2022/11/09 10:10:12;;;;;;;4.03;1.50;;;13.10;99.90;;;;;;5080285;28;20222;-80
2022/11/09 10:12:55;;;;;;;3.57;1.80;;;13.10;99.90;;;;;;5072369;28;20202;-81
2022/11/09 10:15:29;;;;;;;1.77;1.30;;;13.10;99.90;;;;;;5081463;28;20229;-80
2022/11/09 10:18:07;;;;;;;1.43;1.30;;;13.20;99.90;;;;;;5079838;28;20241;-82
2022/11/09 10:21:04;;;;;;;4.33;1.40;;;13.30;99.90;;;;;;5069957;28;20220;-80
2022/11/09 10:23:45;;;;;;;2.83;1.53;;;13.20;99.90;;;;;;5067394;28;20203;-80
2022/11/09 10:26:18;;;;;;;5.43;1.80;;;13.20;99.90;;;;;;5075124;28;20202;-80
2022/11/09 10:28:52;;;;;;;3.90;2.17;;;13.20;99.90;;;;;;5070031;28;20228;-80
2022/11/09 10:31:21;;;;;;;1.83;1.40;;;13.20;99.90;;;;;;5068975;28;20253;-80
2022/11/09 10:33:54;;;;;;;4.00;1.77;;;13.20;99.90;;;;;;5064038;28;20222;-81
2022/11/09 10:36:27;;;;;;;3.33;2.10;;;13.20;99.90;;;;;;5065719;28;20615;-80
2022/11/09 10:38:56;;;;;;;2.33;1.70;;;13.20;99.90;;;;;;5068846;28;20212;-80
2022/11/09 10:41:29;;;;;;;5.17;1.40;;;13.20;99.90;;;;;;5062537;28;20283;-80
2022/11/09 10:43:58;;;;;;;2.20;0.60;;;13.20;99.90;;;;;;5064063;28;20262;-80
2022/11/09 10:46:25;;;;;;;2.03;0.90;;;13.20;99.90;;;;;;5066969;28;20221;-80
2022/11/09 10:48:54;;;;;;;1.33;1.20;;;13.20;99.90;;;;;;5069678;28;20204;-80
2022/11/09 10:51:39;;;;;;;3.13;1.40;;;13.20;99.90;;;;;;5070111;28;20257;-80
2022/11/09 10:54:16;;;;;;;2.10;1.60;;;13.20;99.90;;;;;;5064862;28;20216;-80
2022/11/09 10:56:48;;;;;;;4.63;2.00;;;13.50;99.90;;;;;;5065109;28;20237;-80
2022/11/09 10:59:36;;;;;;;3.70;2.23;;;14.00;99.90;;;;;;5065323;28;20675;-81
2022/11/09 11:02:39;;;;;;;5.37;2.93;;;14.30;99.90;;;;;;5070218;28;20190;-80
2022/11/09 11:05:30;;;;;;;4.20;2.20;;;14.20;99.90;;;;;;5066272;28;20281;-80
2022/11/09 11:07:58;;;;;;;2.60;1.73;;;14.60;99.90;;;;;;5072188;28;20197;-80
2022/11/09 11:10:25;;;;;;;4.40;1.80;;;15.00;99.90;;;;;;5071670;28;20218;-80
2022/11/09 11:13:18;;;;;;;4.20;1.60;;;15.40;99.90;;;;;;5066588;28;20202;-81
2022/11/09 11:15:47;;;;;;;4.20;1.70;;;15.60;99.90;;;;;;5072950;28;20243;-80
2022/11/09 11:18:18;;;;;;;3.87;1.37;;;15.50;99.90;;;;;;5077529;28;20202;-80
2022/11/09 11:20:46;;;;;;;2.15;0.70;;;15.50;99.90;;;;;;5073729;28;20253;-81
2022/11/09 11:23:15;;;;;;;1.83;0.75;;;15.30;99.90;;;;;;5079782;28;20237;-81
2022/11/09 11:26:00;;;;;;;4.73;0.90;;;15.30;99.90;;;;;;5082439;28;20226;-81
2022/11/09 11:28:34;;;;;;;1.63;0.70;;;15.10;99.90;;;;;;5080013;28;20617;-82
2022/11/09 11:31:04;;;;;;;1.52;0.90;;;14.80;99.90;;;;;;5075940;28;20292;-82
2022/11/09 11:33:33;;;;;;;2.53;0.80;;;14.60;99.90;;;;;;5085291;28;20249;-82
2022/11/09 11:36:11;;;;;;;4.90;1.17;;;14.70;99.90;;;;;;5087130;28;20225;-82
2022/11/09 11:38:44;;;;;;;2.40;0.80;;;14.60;99.90;;;;;;5086441;28;20194;-82
2022/11/09 11:41:36;;;;;;;1.83;0.90;;;14.50;99.90;;;;;;5085501;28;20222;-82
2022/11/09 11:44:17;;;;;;;1.63;0.90;;;14.40;99.90;;;;;;5077567;28;20205;-82
2022/11/09 11:46:47;;;;;;;2.95;0.82;;;14.40;99.90;;;;;;5082239;28;20269;-81
2022/11/09 11:49:41;;;;;;;3.50;1.05;;;14.30;99.90;;;;;;5081214;28;20210;-81
2022/11/09 11:52:15;;;;;;;4.13;0.80;;;14.30;99.90;;;;;;5081638;28;20223;-81
2022/11/09 11:54:54;;;;;;;1.05;0.63;;;14.30;99.90;;;;;;5083119;28;20211;-81
2022/11/09 11:57:27;;;;;;;2.93;1.17;;;14.30;99.90;;;;;;5074317;28;20208;-81
2022/11/09 12:00:07;;;;;;;3.57;0.80;;;13.90;99.90;;;;;;5085598;28;20286;-81
2022/11/09 12:02:56;;;;;;;2.97;0.87;;;14.20;99.90;;;;;;5086028;28;20261;-81
2022/11/09 12:06:03;;;;;;;2.80;1.53;;;14.00;99.90;;;;;;5082820;28;20203;-81
2022/11/09 12:08:42;;;;;;;2.27;1.10;;;13.80;99.90;;;;;;5066932;28;20670;-81
2022/11/09 12:11:18;;;;;;;1.73;1.23;;;14.00;99.90;;;;;;5074969;28;20224;-81
2022/11/09 12:13:58;;;;;;;3.23;1.20;;;14.30;99.90;;;;;;5072957;28;20221;-81
2022/11/09 12:16:31;;;;;;;2.37;1.40;;;14.20;99.90;;;;;;5089649;23;20229;-89
2022/11/09 12:19:32;;;;;;;1.60;0.93;;;14.10;99.90;;;;;;5076975;28;20206;-89
2022/11/09 12:22:07;;;;;;;3.60;1.17;;;14.30;99.90;;;;;;5062066;28;20247;-90
2022/11/09 12:24:43;;;;;;;3.47;1.13;;;14.20;99.90;;;;;;5065655;28;20264;-89
2022/11/09 12:27:30;;;;;;;4.50;1.30;;;14.10;99.90;;;;;;5062369;28;20230;-89
2022/11/09 12:30:06;;;;;;;1.33;1.00;;;14.20;99.90;;;;;;5065224;28;20215;-88
2022/11/09 12:32:41;;;;;;;1.43;0.83;;;14.00;99.90;;;;;;5077349;28;20202;-90
2022/11/09 12:35:31;;;;;;;2.70;0.90;;;13.80;99.90;;;;;;5095543;28;20578;-91
2022/11/09 12:38:03;;;;;;;0.97;0.83;;;14.30;99.90;;;;;;5074405;28;20198;-90
2022/11/09 12:40:33;;;;;;;4.00;1.00;;;14.70;99.90;;;;;;5063601;28;20219;-88
2022/11/09 12:43:14;;;;;;;3.20;1.03;;;14.60;99.90;;;;;;5073741;28;20210;-89
2022/11/09 12:45:45;;;;;;;1.30;1.00;;;14.90;99.90;;;;;;5075801;28;20279;-89
2022/11/09 12:48:22;;;;;;;5.37;2.63;;;15.60;99.90;;;;;;5070721;28;20210;-89
2022/11/09 12:50:52;;;;;;;2.67;1.10;;;16.50;99.90;;;;;;5062158;28;20207;-89
2022/11/09 12:53:28;;;;;;;1.67;1.33;;;15.70;99.90;;;;;;5070505;28;20211;-90
2022/11/09 12:55:59;;;;;;;3.65;1.50;;;16.90;99.90;;;;;;5068359;28;20226;-89
2022/11/09 12:58:30;;;;;;;2.22;1.27;;;17.50;99.90;;;;;;5064050;28;20203;-88
2022/11/09 13:00:58;;;;;;;1.48;1.38;;;17.60;45.00;;;;;;5074946;28;20208;-88
2022/11/09 13:03:28;;;;;;;2.70;1.45;;;17.10;1.00;;;;;;5075061;28;20237;-89
2022/11/09 13:06:16;;;;;;;2.45;1.20;;;16.30;99.90;;;;;;5074985;28;20249;-89
2022/11/09 13:08:58;;;;;;;2.78;1.23;;;16.30;99.90;;;;;;5070686;28;20704;-89